Pagrindinis puslapis
METAR-TAF:

METAR-TAF

Oro uostai :

Vitebskas, Baltarusija

platuma: 55-10N, ilguma: 030-13E, Aukštis: 176 m

Dabartinis oras

Ataskaita buvo paskelbta 3 valandos ir 37 minutes, ne 16:00 UTC
Vėjas 6 kt iš Rytų/Šiaurės Rytų
Temperatūra 24°C
Drėgmė 41%
Slėgis 1024 hPa
Matomumas 10 km arba daugiau
nėra debesų žemiau 1500 m ir nėra kamuolinių lietaus debesų

METAR: UMII 171600Z 06003MPS CAVOK 24/10 Q1024 R05/CLRD// NOSIG

Laikas: 22:37 (19:37 UTC)

Prognozė

Ataskaita buvo paskelbta 5 valandos ir 36 minutes, ne 14:01 UTC
Prognozė galioja nuo 17 metu 15 UTC su 17 metu 24 UTC
Vėjas 4 kt nuo kintamojo kryptimis
Matomumas 10 km arba daugiau
Išsisklaidę debesys ne aukštis 2000 ft
Laikinai
nuo 17 metu 15 UTC su 17 metu 24 UTC
Vėjas 10 kt iš Rytų
Išsisklaidę debesys ne aukštis 1500 ft

TAF: UMII 171401Z 1715/1724 VRB02MPS 9999 SCT020 TX25/1715Z TN16/1724Z TEMPO 1715/1724 08005MPS SCT015

Orai ataskaitas ir orų prognozės (METAR, TAF).

turimą stotys yra geltonos ir raudonos taškus žemėlapyje.

Perkelti pele per norėdami pamatyti stoties vardą.

Tada spustelėkite, norėdami matyti oro stebėjimo ir prognozės.

Norėdami pakeisti žemėlapį: spustelėkite ant žalios mygtukų su juodo kryžiaus žemyn,; žalią mygtuką su brūkšneliu, jei norite nutolinti; arba žalių rodyklių gretimoms žemėlapius.


METAR-TAF: